createdAt,value
2018-09-02T00:00:56.045Z,2.70
2018-09-02T00:01:56.005Z,2.70
2018-09-02T00:02:55.964Z,2.70
2018-09-02T00:03:55.930Z,2.80
2018-09-02T00:04:55.894Z,2.50
2018-09-02T00:05:55.870Z,2.50
2018-09-02T00:06:55.814Z,3.10
2018-09-02T00:07:55.781Z,2.70
2018-09-02T00:08:55.744Z,2.20
2018-09-02T00:09:55.705Z,2.60
2018-09-02T00:10:55.674Z,2.60
2018-09-02T00:11:55.636Z,2.60
2018-09-02T00:12:55.599Z,2.80
2018-09-02T00:13:55.576Z,2.30
2018-09-02T00:14:55.523Z,3.00
2018-09-02T00:15:55.488Z,3.10
2018-09-02T00:16:55.451Z,2.80
2018-09-02T00:17:55.414Z,3.10
2018-09-02T00:18:55.385Z,2.90
2018-09-02T00:19:55.345Z,3.00
2018-09-02T00:20:55.315Z,3.00
2018-09-02T00:21:55.268Z,3.00
2018-09-02T00:22:55.237Z,2.70
2018-09-02T00:23:55.199Z,3.10
2018-09-02T00:24:55.165Z,2.90
2018-09-02T00:25:55.133Z,2.60
2018-09-02T00:26:55.086Z,3.40
2018-09-02T00:27:55.050Z,2.90
2018-09-02T00:28:55.017Z,3.10
2018-09-02T00:29:54.976Z,2.90
2018-09-02T00:30:54.952Z,3.30
2018-09-02T00:31:54.909Z,3.80
2018-09-02T00:32:54.927Z,3.70
2018-09-02T00:33:54.862Z,3.60
2018-09-02T00:34:54.795Z,2.90
2018-09-02T00:35:54.758Z,3.00
2018-09-02T00:36:54.725Z,3.30
2018-09-02T00:37:54.690Z,3.10
2018-09-02T00:38:54.652Z,3.10
2018-09-02T00:39:54.612Z,3.10
2018-09-02T00:40:54.578Z,3.00
2018-09-02T00:41:54.538Z,2.90
2018-09-02T00:42:54.506Z,3.10
2018-09-02T00:43:54.469Z,2.60
2018-09-02T00:44:54.432Z,3.40
2018-09-02T00:45:54.571Z,3.00
2018-09-02T00:46:54.361Z,3.30
2018-09-02T00:47:54.322Z,3.20
2018-09-02T00:48:54.283Z,3.30
2018-09-02T00:49:54.260Z,3.20
2018-09-02T00:50:54.215Z,3.30
2018-09-02T00:51:54.177Z,3.20
2018-09-02T00:52:54.142Z,3.40
2018-09-02T00:53:54.096Z,3.70
2018-09-02T00:54:54.068Z,3.30
2018-09-02T00:55:54.027Z,3.40
2018-09-02T00:56:54.036Z,3.50
2018-09-02T00:57:53.967Z,3.10
2018-09-02T00:58:53.912Z,3.40
2018-09-02T00:59:53.878Z,3.40
2018-09-02T01:00:53.841Z,3.00
2018-09-02T01:01:53.807Z,3.20
2018-09-02T01:02:53.790Z,3.30
2018-09-02T01:03:53.737Z,3.50
2018-09-02T01:04:53.698Z,3.20
2018-09-02T01:05:53.664Z,3.50
2018-09-02T01:06:53.620Z,3.30
2018-09-02T01:07:53.584Z,3.30
2018-09-02T01:08:53.554Z,3.40
2018-09-02T01:09:53.515Z,3.20
2018-09-02T01:10:53.473Z,3.60
2018-09-02T01:11:53.448Z,3.60
2018-09-02T01:12:53.400Z,3.10
2018-09-02T01:13:53.376Z,3.60
2018-09-02T01:14:53.330Z,3.30
2018-09-02T01:15:53.294Z,3.20
2018-09-02T01:16:53.254Z,3.60
2018-09-02T01:17:53.222Z,3.30
2018-09-02T01:18:53.179Z,3.30
2018-09-02T01:19:53.144Z,3.80
2018-09-02T01:20:53.104Z,3.50
2018-09-02T01:21:53.068Z,3.30
2018-09-02T01:22:53.104Z,3.40
2018-09-02T01:23:52.996Z,3.40
2018-09-02T01:24:52.957Z,3.40
2018-09-02T01:25:52.930Z,3.60
2018-09-02T01:26:52.888Z,3.20
2018-09-02T01:27:52.849Z,3.80
2018-09-02T01:28:52.813Z,3.30
2018-09-02T01:29:52.780Z,3.30
2018-09-02T01:30:52.733Z,3.40
2018-09-02T01:31:52.700Z,3.40
2018-09-02T01:32:52.662Z,3.40
2018-09-02T01:33:52.624Z,3.50
2018-09-02T01:34:52.593Z,3.60
2018-09-02T01:35:52.555Z,3.30
2018-09-02T01:36:52.514Z,3.70
2018-09-02T01:37:52.480Z,3.60
2018-09-02T01:38:52.438Z,3.60
2018-09-02T01:39:52.405Z,3.60
2018-09-02T01:40:52.369Z,3.60
2018-09-02T01:41:52.336Z,3.70
2018-09-02T01:42:52.290Z,3.80
2018-09-02T01:43:52.254Z,4.00
2018-09-02T01:44:52.218Z,3.50
2018-09-02T01:45:52.179Z,3.30
2018-09-02T01:46:52.149Z,3.60
2018-09-02T01:47:52.117Z,3.80
2018-09-02T01:48:52.082Z,3.40
2018-09-02T01:49:52.037Z,3.20
2018-09-02T01:50:51.992Z,3.10
2018-09-02T01:51:51.957Z,3.70
2018-09-02T01:52:51.922Z,3.60
2018-09-02T01:53:51.887Z,3.60
2018-09-02T01:54:51.850Z,3.30
2018-09-02T01:55:51.811Z,3.30
2018-09-02T01:56:51.777Z,3.70
2018-09-02T01:57:51.741Z,3.90
2018-09-02T01:58:51.697Z,3.40
2018-09-02T01:59:51.664Z,3.90
2018-09-02T02:00:51.630Z,3.40
2018-09-02T02:01:51.591Z,3.30
2018-09-02T02:02:51.554Z,3.40
2018-09-02T02:03:51.515Z,3.70
2018-09-02T02:04:51.481Z,3.60
2018-09-02T02:05:51.459Z,3.90
2018-09-02T02:06:51.403Z,3.40
2018-09-02T02:07:51.365Z,3.40
2018-09-02T02:08:51.325Z,3.20
2018-09-02T02:09:51.293Z,4.10
2018-09-02T02:10:51.258Z,3.60
2018-09-02T02:11:51.223Z,3.30
2018-09-02T02:12:51.190Z,3.70
2018-09-02T02:13:51.147Z,3.30
2018-09-02T02:14:51.105Z,3.80
2018-09-02T02:15:51.067Z,3.70
2018-09-02T02:16:51.034Z,3.50
2018-09-02T02:17:50.993Z,3.50
2018-09-02T02:18:50.955Z,3.70
2018-09-02T02:19:50.919Z,3.80
2018-09-02T02:20:50.889Z,3.50
2018-09-02T02:21:50.845Z,3.80
2018-09-02T02:22:50.808Z,3.60
2018-09-02T02:23:50.769Z,3.50
2018-09-02T02:24:50.734Z,3.60
2018-09-02T02:25:50.698Z,3.80
2018-09-02T02:26:50.657Z,4.10
2018-09-02T02:27:50.627Z,4.10
2018-09-02T02:28:50.578Z,3.50
2018-09-02T02:29:50.543Z,4.00
2018-09-02T02:30:50.510Z,4.00
2018-09-02T02:31:50.472Z,3.70
2018-09-02T02:32:50.445Z,3.80
2018-09-02T02:33:50.400Z,4.20
2018-09-02T02:34:50.370Z,3.60
2018-09-02T02:35:50.322Z,3.60
2018-09-02T02:36:50.283Z,3.80
2018-09-02T02:37:50.250Z,3.90
2018-09-02T02:38:50.218Z,4.20
2018-09-02T02:39:50.179Z,3.50
2018-09-02T02:40:50.132Z,4.10
2018-09-02T02:41:50.093Z,3.50
2018-09-02T02:42:50.060Z,3.90
2018-09-02T02:43:50.027Z,3.80
2018-09-02T02:44:49.990Z,3.70
2018-09-02T02:45:49.952Z,3.60
2018-09-02T02:46:49.911Z,4.00
2018-09-02T02:47:49.886Z,4.00
2018-09-02T02:48:49.837Z,3.50
2018-09-02T02:49:49.813Z,4.10
2018-09-02T02:50:49.760Z,4.00
2018-09-02T02:51:49.724Z,3.80
2018-09-02T02:52:49.689Z,3.80
2018-09-02T02:53:49.648Z,3.90
2018-09-02T02:54:49.614Z,3.70
2018-09-02T02:55:49.575Z,3.70
2018-09-02T02:56:49.542Z,3.60
2018-09-02T02:57:49.504Z,4.00
2018-09-02T02:58:49.462Z,4.20
2018-09-02T02:59:49.424Z,4.10
2018-09-02T03:00:49.389Z,4.10
2018-09-02T03:01:49.347Z,4.00
2018-09-02T03:02:49.310Z,3.50
2018-09-02T03:03:49.276Z,3.70
2018-09-02T03:04:49.241Z,4.00
2018-09-02T03:05:49.205Z,4.10
2018-09-02T03:06:49.163Z,4.00
2018-09-02T03:07:49.139Z,4.00
2018-09-02T03:08:49.083Z,4.00
2018-09-02T03:09:49.055Z,4.40
2018-09-02T03:10:49.072Z,4.10
2018-09-02T03:11:48.975Z,4.00
2018-09-02T03:12:48.933Z,4.00
2018-09-02T03:13:48.896Z,4.20
2018-09-02T03:14:48.860Z,4.00
2018-09-02T03:15:48.825Z,4.50
2018-09-02T03:16:48.792Z,4.10
2018-09-02T03:17:48.760Z,4.50
2018-09-02T03:18:48.713Z,4.20
2018-09-02T03:19:48.672Z,4.50
2018-09-02T03:20:48.633Z,4.80
2018-09-02T03:21:48.599Z,4.10
2018-09-02T03:22:48.573Z,4.60
2018-09-02T03:23:48.525Z,4.20
2018-09-02T03:24:48.490Z,4.10
2018-09-02T03:25:48.453Z,4.30
2018-09-02T03:26:48.417Z,4.20
2018-09-02T03:27:48.381Z,4.50
2018-09-02T03:28:48.343Z,4.50
2018-09-02T03:29:48.304Z,4.90
2018-09-02T03:30:48.265Z,4.40
2018-09-02T03:31:48.224Z,4.30
2018-09-02T03:32:48.189Z,4.40
2018-09-02T03:33:48.146Z,4.30
2018-09-02T03:34:48.110Z,4.30
2018-09-02T03:35:48.074Z,4.20
2018-09-02T03:36:48.039Z,4.30
2018-09-02T03:37:48.003Z,4.30
2018-09-02T03:38:47.961Z,4.20
2018-09-02T03:39:47.924Z,4.60
2018-09-02T03:40:47.891Z,4.20
2018-09-02T03:41:47.853Z,4.30
2018-09-02T03:42:47.814Z,4.30
2018-09-02T03:43:47.773Z,4.00
2018-09-02T03:44:47.733Z,4.30
2018-09-02T03:45:47.699Z,4.20
2018-09-02T03:46:47.658Z,4.20
2018-09-02T03:47:47.627Z,4.10
2018-09-02T03:48:47.606Z,4.20
2018-09-02T03:49:47.554Z,4.60
2018-09-02T03:50:47.510Z,4.50
2018-09-02T03:51:47.471Z,4.80
2018-09-02T03:52:47.433Z,4.50
2018-09-02T04:06:54.156Z,4.20
2018-09-02T04:07:54.071Z,5.80
2018-09-02T04:08:54.032Z,5.50
2018-09-02T04:09:53.986Z,5.80
2018-09-02T04:10:53.943Z,5.40
2018-09-02T04:11:53.906Z,5.20
2018-09-02T04:12:53.867Z,5.10
2018-09-02T04:13:53.822Z,5.40
2018-09-02T04:14:53.784Z,5.40
2018-09-02T04:15:53.768Z,4.90
2018-09-02T04:16:53.733Z,4.90
2018-09-02T04:17:53.673Z,5.60
2018-09-02T04:18:53.629Z,5.20
2018-09-02T04:19:53.590Z,5.30
2018-09-02T04:20:53.553Z,5.40
2018-09-02T04:21:53.508Z,5.60
2018-09-02T04:22:53.489Z,5.60
2018-09-02T04:23:53.434Z,5.00
2018-09-02T04:24:53.399Z,5.30
2018-09-02T04:25:53.364Z,5.50
2018-09-02T04:26:53.321Z,5.40
2018-09-02T04:27:53.283Z,4.90
2018-09-02T04:28:53.242Z,5.40
2018-09-02T04:29:53.210Z,5.20
2018-09-02T04:30:53.177Z,5.30
2018-09-02T04:31:53.129Z,5.50
2018-09-02T04:32:53.094Z,5.50
2018-09-02T04:33:53.099Z,5.50
2018-09-02T04:34:53.013Z,6.10
2018-09-02T04:35:52.974Z,6.10
2018-09-02T04:36:52.933Z,5.70
2018-09-02T04:37:52.905Z,6.40
2018-09-02T04:38:52.862Z,6.20
2018-09-02T04:39:52.828Z,6.50
2018-09-02T04:40:52.798Z,6.10
2018-09-02T04:41:52.745Z,6.70
2018-09-02T04:42:52.708Z,6.70
2018-09-02T04:43:52.679Z,6.30
2018-09-02T04:44:52.642Z,6.40
2018-09-02T04:45:52.594Z,6.60
2018-09-02T04:46:52.558Z,7.10
2018-09-02T04:47:52.519Z,6.70
2018-09-02T04:48:52.478Z,6.30
2018-09-02T04:49:52.447Z,6.30
2018-09-02T04:50:52.405Z,6.30
2018-09-02T04:51:52.370Z,6.60
2018-09-02T04:52:52.330Z,6.30
2018-09-02T04:53:52.291Z,6.40
2018-09-02T04:54:52.253Z,6.80
2018-09-02T04:55:52.220Z,6.80
2018-09-02T04:56:52.173Z,5.80
2018-09-02T04:57:52.144Z,6.00
2018-09-02T04:58:52.101Z,5.70
2018-09-02T04:59:52.061Z,5.50
2018-09-02T05:00:52.022Z,6.10
2018-09-02T05:01:51.989Z,5.70
2018-09-02T05:02:51.952Z,5.60
2018-09-02T05:03:51.914Z,5.90
2018-09-02T05:04:51.877Z,5.90
2018-09-02T05:05:51.831Z,5.70
2018-09-02T05:06:51.797Z,5.80
2018-09-02T05:07:51.757Z,5.60
2018-09-02T05:08:51.724Z,6.40
2018-09-02T05:09:51.685Z,6.20
2018-09-02T05:10:51.646Z,6.50
2018-09-02T05:11:51.609Z,7.00
2018-09-02T05:12:51.571Z,6.50
2018-09-02T05:13:51.535Z,6.50
2018-09-02T05:14:51.491Z,6.10
2018-09-02T05:15:51.456Z,6.30
2018-09-02T05:16:51.419Z,5.90
2018-09-02T05:17:51.383Z,5.80
2018-09-02T05:18:51.346Z,6.00
2018-09-02T05:19:51.305Z,5.30
2018-09-02T05:20:51.265Z,5.60
2018-09-02T05:21:51.232Z,5.90
2018-09-02T05:22:51.191Z,6.10
2018-09-02T05:23:51.159Z,5.60
2018-09-02T05:24:51.120Z,5.80
2018-09-02T05:25:51.080Z,5.20
2018-09-02T05:26:51.040Z,5.60
2018-09-02T05:27:51.002Z,5.50
2018-09-02T05:28:50.965Z,5.60
2018-09-02T05:29:50.933Z,5.80
2018-09-02T05:30:50.889Z,5.60
2018-09-02T05:31:50.855Z,5.90
2018-09-02T05:32:50.819Z,5.40
2018-09-02T05:33:50.782Z,5.50
2018-09-02T05:34:50.739Z,5.50
2018-09-02T05:35:50.702Z,6.40
2018-09-02T05:36:50.702Z,6.10
2018-09-02T05:37:50.625Z,5.60
2018-09-02T05:38:50.595Z,6.00
2018-09-02T05:39:50.551Z,5.80
2018-09-02T05:40:50.506Z,6.00
2018-09-02T05:41:50.477Z,6.00
2018-09-02T05:42:50.437Z,6.10
2018-09-02T05:43:50.431Z,5.90
2018-09-02T05:44:50.367Z,6.30
2018-09-02T05:45:50.321Z,6.20
2018-09-02T05:46:50.284Z,6.60
2018-09-02T05:47:50.249Z,6.40
2018-09-02T05:48:50.246Z,6.70
2018-09-02T05:49:50.170Z,5.90
2018-09-02T05:50:50.142Z,5.80
2018-09-02T05:51:50.100Z,6.30
2018-09-02T05:52:50.058Z,5.90
2018-09-02T05:53:50.027Z,5.20
2018-09-02T05:54:49.991Z,5.70
2018-09-02T05:55:49.955Z,5.60
2018-09-02T05:56:49.916Z,5.00
2018-09-02T05:57:50.690Z,5.00
2018-09-02T05:58:49.884Z,5.10
2018-09-02T05:59:49.799Z,5.20
2018-09-02T06:00:49.760Z,5.50
2018-09-02T06:01:49.728Z,5.30
2018-09-02T06:02:49.758Z,5.50
2018-09-02T06:03:49.652Z,5.70
2018-09-02T06:04:49.615Z,4.90
2018-09-02T06:05:49.581Z,5.50
2018-09-02T06:06:49.542Z,5.30
2018-09-02T06:07:49.503Z,6.40
2018-09-02T06:08:49.468Z,5.70
2018-09-02T06:09:49.424Z,6.10
2018-09-02T06:10:49.393Z,5.60
2018-09-02T06:11:49.358Z,5.40
2018-09-02T06:12:49.318Z,5.60
2018-09-02T06:13:49.285Z,5.60
2018-09-02T06:14:49.242Z,5.70
2018-09-02T06:15:49.206Z,5.60
2018-09-02T06:16:49.169Z,6.00
2018-09-02T06:17:49.140Z,5.30
2018-09-02T06:18:49.100Z,5.70
2018-09-02T06:19:49.063Z,5.70
2018-09-02T06:20:49.023Z,5.70
2018-09-02T06:21:48.983Z,6.10
2018-09-02T06:22:48.947Z,5.60
2018-09-02T06:23:48.910Z,5.20
2018-09-02T06:24:48.872Z,5.50
2018-09-02T06:25:48.837Z,5.40
2018-09-02T06:26:48.799Z,5.80
2018-09-02T06:27:48.765Z,5.60
2018-09-02T06:28:48.728Z,5.50
2018-09-02T06:29:48.690Z,6.00
2018-09-02T06:30:48.657Z,5.70
2018-09-02T06:31:48.615Z,5.50
2018-09-02T06:32:48.629Z,5.40
2018-09-02T06:33:48.545Z,5.30
2018-09-02T06:34:48.507Z,6.10
2018-09-02T06:35:48.469Z,5.40
2018-09-02T06:36:48.433Z,5.50
2018-09-02T06:37:48.401Z,5.50
2018-09-02T06:38:48.360Z,6.10
2018-09-02T06:39:48.323Z,6.00
2018-09-02T06:40:48.290Z,5.90
2018-09-02T06:41:48.248Z,6.30
2018-09-02T06:42:48.213Z,5.60
2018-09-02T06:43:48.179Z,5.90
2018-09-02T06:44:48.138Z,6.10
2018-09-02T06:45:48.159Z,5.90
2018-09-02T06:46:48.068Z,5.50
2018-09-02T06:47:48.031Z,6.00
2018-09-02T06:48:47.998Z,5.80
2018-09-02T06:49:47.960Z,5.90
2018-09-02T06:50:47.930Z,5.70
2018-09-02T06:51:47.887Z,5.90
2018-09-02T06:52:47.853Z,6.00
2018-09-02T06:53:47.810Z,6.10
2018-09-02T06:54:47.777Z,6.20
2018-09-02T06:55:47.739Z,6.60
2018-09-02T06:56:47.701Z,6.10
2018-09-02T06:57:47.671Z,6.10
2018-09-02T06:58:47.665Z,6.50
2018-09-02T06:59:47.598Z,6.90
2018-09-02T07:00:47.560Z,6.60
2018-09-02T07:01:47.524Z,7.30
2018-09-02T07:02:47.484Z,7.10
2018-09-02T07:03:47.450Z,7.00
2018-09-02T07:04:47.415Z,7.50
2018-09-02T07:05:47.385Z,7.90
2018-09-02T07:06:47.352Z,7.70
2018-09-02T07:07:47.304Z,7.30
2018-09-02T07:08:47.270Z,7.60
2018-09-02T07:09:47.283Z,7.00
2018-09-02T07:10:47.202Z,8.50
2018-09-02T07:11:47.167Z,8.50
2018-09-02T07:12:47.130Z,8.50
2018-09-02T07:13:47.096Z,7.80
2018-09-02T07:14:47.054Z,7.50
2018-09-02T07:15:47.017Z,8.00
2018-09-02T07:16:46.990Z,7.40
2018-09-02T07:17:46.949Z,7.10
2018-09-02T07:18:46.916Z,7.40
2018-09-02T07:19:46.879Z,7.20
2018-09-02T07:20:46.844Z,7.40
2018-09-02T07:21:46.806Z,7.20
2018-09-02T07:22:46.765Z,7.30
2018-09-02T07:23:46.736Z,7.50
2018-09-02T07:24:46.697Z,8.70
2018-09-02T07:25:46.662Z,8.20
2018-09-02T07:26:46.622Z,8.20
2018-09-02T07:27:46.588Z,8.00
2018-09-02T07:28:46.558Z,8.60
2018-09-02T07:29:46.522Z,8.00
2018-09-02T07:30:46.490Z,8.70
2018-09-02T07:31:46.451Z,8.50
2018-09-02T07:32:46.416Z,9.20
2018-09-02T07:33:46.375Z,8.80
2018-09-02T07:34:46.339Z,8.10
2018-09-02T07:35:46.303Z,8.80
2018-09-02T07:36:46.267Z,9.30
2018-09-02T07:37:46.236Z,9.20
2018-09-02T07:38:46.208Z,8.70
2018-09-02T07:39:46.159Z,8.60
2018-09-02T07:40:46.127Z,8.50
2018-09-02T07:41:46.100Z,9.10
2018-09-02T07:42:46.059Z,8.20
2018-09-02T07:43:46.075Z,8.00
2018-09-02T07:44:45.986Z,7.10
2018-09-02T07:45:45.949Z,6.90
2018-09-02T07:46:45.918Z,7.80
2018-09-02T07:47:45.876Z,6.90
2018-09-02T07:48:45.899Z,7.20
2018-09-02T07:49:45.809Z,7.40
2018-09-02T07:50:45.776Z,6.70
2018-09-02T07:51:45.743Z,7.30
2018-09-02T07:52:45.707Z,6.70
2018-09-02T07:53:45.667Z,6.80
2018-09-02T07:54:45.631Z,6.10
2018-09-02T07:55:45.601Z,6.10
2018-09-02T07:56:45.567Z,6.10
2018-09-02T07:57:45.530Z,6.50
2018-09-02T07:58:45.497Z,6.10
2018-09-02T07:59:45.463Z,5.90
2018-09-02T08:00:45.420Z,5.80
2018-09-02T08:01:45.389Z,6.70
2018-09-02T08:02:45.431Z,5.90
2018-09-02T08:03:45.323Z,6.30
2018-09-02T08:04:45.283Z,5.70
2018-09-02T08:05:45.246Z,5.70
2018-09-02T08:06:45.212Z,5.80
2018-09-02T08:07:45.178Z,5.40
2018-09-02T08:08:45.144Z,5.40
2018-09-02T08:09:45.111Z,6.00
2018-09-02T08:10:45.079Z,6.00
2018-09-02T08:11:45.037Z,6.00
2018-09-02T08:12:45.172Z,6.10
2018-09-02T08:13:44.970Z,5.90
2018-09-02T08:14:44.938Z,6.10
2018-09-02T08:15:44.904Z,5.60
2018-09-02T08:16:44.866Z,5.50
2018-09-02T08:17:44.829Z,5.80
2018-09-02T08:18:44.796Z,5.80
2018-09-02T08:19:44.768Z,5.90
2018-09-02T08:20:44.726Z,5.90
2018-09-02T08:21:44.695Z,5.60
2018-09-02T08:22:44.664Z,5.70
2018-09-02T08:23:44.628Z,5.80
2018-09-02T08:24:44.595Z,5.70
2018-09-02T08:25:44.562Z,5.80
2018-09-02T08:26:44.562Z,5.60
2018-09-02T08:27:44.489Z,6.00
2018-09-02T08:28:44.453Z,5.90
2018-09-02T08:29:44.437Z,6.00
2018-09-02T08:30:44.379Z,5.50
2018-09-02T08:31:44.346Z,5.70
2018-09-02T08:32:44.313Z,5.80
2018-09-02T08:33:44.284Z,5.70
2018-09-02T08:34:44.247Z,5.50
2018-09-02T08:35:44.213Z,5.20
2018-09-02T08:36:44.175Z,5.90
2018-09-02T08:37:44.143Z,5.40
2018-09-02T08:38:44.134Z,5.30
2018-09-02T08:39:44.070Z,5.30
2018-09-02T08:40:44.046Z,5.40
2018-09-02T08:41:44.003Z,5.40
2018-09-02T08:42:43.974Z,5.40
2018-09-02T08:43:43.934Z,4.90
2018-09-02T08:44:43.899Z,4.40
2018-09-02T08:45:43.870Z,4.80
2018-09-02T08:46:43.835Z,4.20
2018-09-02T08:47:43.801Z,4.30
2018-09-02T08:48:43.770Z,4.60
2018-09-02T08:49:43.728Z,3.90
2018-09-02T08:50:43.692Z,4.20
2018-09-02T08:51:43.668Z,3.90
2018-09-02T08:52:43.630Z,4.30
2018-09-02T08:53:43.593Z,3.80
2018-09-02T08:54:43.564Z,3.90
2018-09-02T08:55:43.535Z,3.70
2018-09-02T08:56:43.490Z,3.70
2018-09-02T08:57:43.455Z,3.70
2018-09-02T08:58:43.423Z,3.60
2018-09-02T08:59:43.392Z,3.50
2018-09-02T09:00:43.359Z,4.20
2018-09-02T09:01:43.357Z,3.90
2018-09-02T09:02:43.286Z,4.10
2018-09-02T09:03:43.250Z,3.60
2018-09-02T09:04:43.217Z,3.90
2018-09-02T09:05:43.184Z,3.90
2018-09-02T09:06:43.152Z,3.90
2018-09-02T09:07:43.182Z,3.80
2018-09-02T09:08:43.256Z,3.90
2018-09-02T09:09:43.051Z,3.70
2018-09-02T09:10:43.012Z,4.20
2018-09-02T09:11:42.976Z,4.40
2018-09-02T09:12:42.945Z,4.20
2018-09-02T09:13:42.917Z,4.30
2018-09-02T09:14:42.881Z,3.70
2018-09-02T09:15:42.845Z,4.10
2018-09-02T09:16:42.845Z,4.40
2018-09-02T09:17:42.788Z,4.00
2018-09-02T09:18:42.751Z,4.30
2018-09-02T09:19:42.712Z,4.10
2018-09-02T09:20:42.687Z,4.40
2018-09-02T09:21:42.740Z,3.90
2018-09-02T09:22:42.695Z,4.10
2018-09-02T09:23:42.588Z,4.50
2018-09-02T09:24:42.544Z,3.90
2018-09-02T09:25:42.509Z,4.10
2018-09-02T09:26:42.476Z,4.50
2018-09-02T09:27:42.455Z,4.30
2018-09-02T09:28:42.408Z,4.20
2018-09-02T09:29:42.374Z,4.00
2018-09-02T09:30:42.336Z,4.10
2018-09-02T09:31:42.309Z,4.30
2018-09-02T09:32:42.277Z,4.30
2018-09-02T09:33:42.237Z,4.30
2018-09-02T09:34:42.253Z,4.80
2018-09-02T09:35:42.169Z,4.30
2018-09-02T09:36:42.138Z,4.50
2018-09-02T09:37:42.110Z,4.00
2018-09-02T09:38:42.077Z,4.50
2018-09-02T09:39:42.043Z,4.70
2018-09-02T09:40:42.008Z,4.20
2018-09-02T09:41:41.970Z,4.30
2018-09-02T09:42:41.939Z,4.20
2018-09-02T09:43:41.906Z,3.80
2018-09-02T09:44:41.874Z,4.50
2018-09-02T09:45:41.840Z,4.50
2018-09-02T09:46:41.811Z,4.20
2018-09-02T09:47:41.776Z,4.10
2018-09-02T09:48:41.747Z,4.10
2018-09-02T09:49:41.711Z,4.10
2018-09-02T09:50:41.682Z,4.30
2018-09-02T09:51:41.646Z,3.90
2018-09-02T09:52:41.611Z,4.20
2018-09-02T09:53:41.578Z,3.60
2018-09-02T09:54:41.548Z,4.10
2018-09-02T09:55:41.570Z,4.00
2018-09-02T09:56:41.485Z,3.90
2018-09-02T09:57:41.448Z,4.10
2018-09-02T09:58:41.414Z,3.90
2018-09-02T09:59:41.385Z,4.10
2018-09-02T10:00:41.345Z,4.10
2018-09-02T10:01:41.315Z,3.80
2018-09-02T10:02:41.276Z,4.60
2018-09-02T10:03:41.292Z,3.90
2018-09-02T10:04:41.221Z,3.60
2018-09-02T10:05:41.180Z,3.60
2018-09-02T10:06:41.147Z,4.10
2018-09-02T10:21:02.327Z,4.80
2018-09-02T10:22:02.250Z,4.70
2018-09-02T10:23:02.220Z,4.70
2018-09-02T10:24:02.170Z,4.40
2018-09-02T10:25:02.130Z,4.10
2018-09-02T10:26:02.100Z,4.70
2018-09-02T10:27:02.064Z,4.40
2018-09-02T10:28:02.026Z,4.20
2018-09-02T10:29:01.990Z,4.10
2018-09-02T10:30:01.960Z,4.00
2018-09-02T10:31:01.923Z,4.10
2018-09-02T10:32:01.885Z,4.30
2018-09-02T10:33:01.852Z,4.30
2018-09-02T10:34:01.824Z,4.40
2018-09-02T10:35:01.792Z,4.10
2018-09-02T10:36:01.749Z,4.60
2018-09-02T10:37:01.715Z,4.50
2018-09-02T10:38:01.680Z,4.10
2018-09-02T10:39:01.657Z,4.30
2018-09-02T10:40:01.627Z,3.80
2018-09-02T10:41:01.599Z,3.60
2018-09-02T10:42:01.554Z,4.40
2018-09-02T10:43:01.515Z,4.40
2018-09-02T10:44:01.485Z,4.30
2018-09-02T10:45:01.451Z,3.90
2018-09-02T10:46:01.415Z,4.00
2018-09-02T10:47:01.388Z,4.00
2018-09-02T10:48:01.354Z,4.00
2018-09-02T10:49:01.318Z,3.70
2018-09-02T10:50:01.283Z,4.10
2018-09-02T10:51:01.257Z,3.80
2018-09-02T10:52:01.223Z,3.90
2018-09-02T10:53:01.188Z,4.00
2018-09-02T10:54:01.159Z,3.60
2018-09-02T10:55:01.122Z,3.50
2018-09-02T10:56:01.090Z,3.40
2018-09-02T10:57:01.057Z,3.70
2018-09-02T10:58:01.026Z,3.60
2018-09-02T10:59:00.997Z,4.00
2018-09-02T11:00:00.961Z,3.70
2018-09-02T11:01:00.930Z,4.00
2018-09-02T11:02:00.899Z,4.50
2018-09-02T11:03:00.860Z,4.10
2018-09-02T11:04:00.836Z,4.10
2018-09-02T11:05:00.802Z,3.70
2018-09-02T11:06:00.777Z,4.00
2018-09-02T11:07:00.744Z,3.90
2018-09-02T11:08:00.705Z,3.80
2018-09-02T11:09:00.668Z,4.00
2018-09-02T11:10:00.653Z,4.00
2018-09-02T11:11:00.613Z,3.60
2018-09-02T11:12:00.576Z,3.70
2018-09-02T11:13:00.615Z,3.90
2018-09-02T11:14:00.709Z,3.70
2018-09-02T11:15:00.478Z,3.50
2018-09-02T11:16:00.447Z,3.80
2018-09-02T11:17:00.413Z,3.50
2018-09-02T11:18:00.378Z,3.90
2018-09-02T11:19:00.354Z,3.80
2018-09-02T11:20:00.319Z,4.10
2018-09-02T11:21:00.285Z,3.70
2018-09-02T11:22:00.250Z,3.40
2018-09-02T11:23:00.225Z,3.40
2018-09-02T11:24:00.190Z,3.60
2018-09-02T11:25:00.160Z,3.70
2018-09-02T11:26:00.130Z,3.50
2018-09-02T11:27:00.090Z,3.80
2018-09-02T11:28:00.067Z,3.80
2018-09-02T11:29:00.035Z,3.80
2018-09-02T11:30:00.006Z,3.40
2018-09-02T11:30:59.971Z,3.50
2018-09-02T11:31:59.934Z,3.50
2018-09-02T11:32:59.903Z,4.00
2018-09-02T11:33:59.909Z,3.60
2018-09-02T11:34:59.834Z,3.40
2018-09-02T11:35:59.809Z,3.70
2018-09-02T11:36:59.774Z,3.60
2018-09-02T11:37:59.743Z,3.20
2018-09-02T11:38:59.706Z,3.40
2018-09-02T11:39:59.678Z,3.90
2018-09-02T11:40:59.643Z,3.70
2018-09-02T11:41:59.613Z,3.60
2018-09-02T11:42:59.583Z,3.80
2018-09-02T11:43:59.551Z,3.80
2018-09-02T11:44:59.540Z,3.60
2018-09-02T11:45:59.488Z,3.60
2018-09-02T11:46:59.491Z,3.30
2018-09-02T11:47:59.420Z,3.40
2018-09-02T11:48:59.387Z,3.80
2018-09-02T11:49:59.354Z,3.50
2018-09-02T11:50:59.328Z,4.10
2018-09-02T11:51:59.309Z,3.50
2018-09-02T11:52:59.260Z,3.70
2018-09-02T11:53:59.228Z,3.40
2018-09-02T11:54:59.210Z,3.80
2018-09-02T11:55:59.168Z,3.80
2018-09-02T11:56:59.141Z,3.30
2018-09-02T11:57:59.107Z,3.70
2018-09-02T11:58:59.081Z,3.70
2018-09-02T11:59:59.044Z,3.80
2018-09-02T12:00:59.010Z,3.80
2018-09-02T12:01:58.980Z,3.30
2018-09-02T12:02:58.950Z,3.80
2018-09-02T12:03:58.922Z,3.60
2018-09-02T12:04:58.918Z,3.70
2018-09-02T12:05:58.855Z,3.80
2018-09-02T12:06:58.820Z,3.70
2018-09-02T12:07:58.787Z,4.10
2018-09-02T12:08:58.760Z,3.90
2018-09-02T12:09:58.732Z,4.00
2018-09-02T12:10:58.693Z,4.40
2018-09-02T12:11:58.667Z,4.90
2018-09-02T12:12:58.632Z,3.90
2018-09-02T12:13:58.617Z,3.90
2018-09-02T12:14:58.693Z,4.20
2018-09-02T12:15:58.547Z,4.00
2018-09-02T12:16:58.517Z,3.90
2018-09-02T12:17:58.484Z,3.60
2018-09-02T12:18:58.468Z,3.80
2018-09-02T12:19:58.420Z,3.30
2018-09-02T12:20:58.385Z,3.70
2018-09-02T12:21:58.351Z,3.50
2018-09-02T12:22:58.325Z,3.90
2018-09-02T12:23:58.304Z,3.60
2018-09-02T12:24:58.264Z,4.00
2018-09-02T12:25:58.236Z,3.80
2018-09-02T12:26:58.202Z,3.70
2018-09-02T12:27:58.169Z,3.30
2018-09-02T12:28:58.137Z,3.90
2018-09-02T12:29:58.117Z,3.90
2018-09-02T12:30:58.072Z,3.80
2018-09-02T12:31:58.048Z,3.80
2018-09-02T12:32:58.015Z,3.60
2018-09-02T12:33:57.987Z,4.00
2018-09-02T12:34:57.953Z,3.60
2018-09-02T12:35:57.924Z,4.10
2018-09-02T12:36:57.888Z,3.90
2018-09-02T12:37:57.860Z,3.60
2018-09-02T12:38:57.822Z,3.80
2018-09-02T12:39:57.795Z,3.80
2018-09-02T12:40:57.766Z,4.50
2018-09-02T12:41:57.737Z,3.50
2018-09-02T12:42:57.698Z,3.60
2018-09-02T12:43:57.670Z,3.80
2018-09-02T12:44:57.637Z,3.70
2018-09-02T12:45:57.605Z,4.00
2018-09-02T12:46:57.614Z,3.80
2018-09-02T12:47:57.585Z,4.10
2018-09-02T12:48:57.517Z,4.00
2018-09-02T12:49:57.492Z,3.70
2018-09-02T12:50:57.451Z,3.60
2018-09-02T12:51:57.421Z,3.70
2018-09-02T12:52:57.393Z,3.80
2018-09-02T12:53:57.360Z,3.70
2018-09-02T12:54:57.660Z,3.70
2018-09-02T12:55:57.301Z,3.70
2018-09-02T12:56:57.267Z,3.70
2018-09-02T12:57:57.233Z,3.40
2018-09-02T12:58:57.209Z,3.50
2018-09-02T12:59:57.184Z,3.70
2018-09-02T13:00:57.155Z,4.20
2018-09-02T13:01:57.125Z,4.10
2018-09-02T13:02:57.082Z,4.30
2018-09-02T13:03:57.861Z,4.10
2018-09-02T13:04:57.027Z,4.00
2018-09-02T13:05:56.988Z,4.00
2018-09-02T13:06:56.969Z,3.90
2018-09-02T13:07:56.928Z,3.50
2018-09-02T13:08:56.898Z,3.60
2018-09-02T13:09:56.872Z,3.50
2018-09-02T13:10:56.836Z,4.00
2018-09-02T13:11:56.803Z,3.80
2018-09-02T13:12:56.777Z,4.40
2018-09-02T13:13:56.746Z,4.10
2018-09-02T13:14:56.708Z,3.40
2018-09-02T13:15:56.681Z,4.00
2018-09-02T13:16:56.649Z,3.60
2018-09-02T13:17:56.613Z,3.70
2018-09-02T13:18:56.645Z,3.70
2018-09-02T13:19:56.557Z,3.70
2018-09-02T13:20:56.526Z,3.80
2018-09-02T13:21:56.496Z,3.50
2018-09-02T13:22:56.458Z,3.70
2018-09-02T13:23:56.488Z,4.40
2018-09-02T13:24:56.406Z,3.50
2018-09-02T13:25:56.363Z,3.80
2018-09-02T13:26:56.343Z,3.70
2018-09-02T13:27:56.306Z,3.80
2018-09-02T13:28:56.274Z,3.50
2018-09-02T13:29:56.239Z,3.50
2018-09-02T13:30:56.219Z,3.60
2018-09-02T13:31:56.231Z,3.90
2018-09-02T13:32:56.150Z,3.40
2018-09-02T13:33:56.124Z,3.00
2018-09-02T13:34:56.086Z,3.60
2018-09-02T13:35:56.053Z,3.20
2018-09-02T13:36:56.022Z,3.90
2018-09-02T13:37:55.999Z,3.30
2018-09-02T13:38:55.962Z,3.40
2018-09-02T13:39:55.941Z,3.50
2018-09-02T13:40:55.900Z,3.70
2018-09-02T13:41:55.867Z,3.30
2018-09-02T13:42:55.835Z,4.00
2018-09-02T13:43:55.801Z,3.40
2018-09-02T13:44:55.772Z,3.30